KNEL/NEL METAR and TAF weather

Enter ICAO airport designator
Station Type Date Time Source
KNEL METAR 2019/04/25 17:00 UTC NOAA

KNEL 251700Z AUTO 16007G15KT 10SM BKN100 16/07 A2996 RMK AO2 SLP143 T01610067 PNO $


Station Type Date Time Source
KNEL Decoded METAR 2019/04/25 17:00 UTC NOAA

Lakehurst Naval Air Station, NJ, United States (KNEL) 40-02N 074-19W 24M
Apr 25, 2019 - 01:00 PM EDT / 2019.04.25 1700 UTC
Wind: from the SSE (160 degrees) at 8 MPH (7 KT) gusting to 17 MPH (15 KT):0
Visibility: 10 mile(s):0
Sky conditions: mostly cloudy
Temperature: 61.0 F (16.1 C)
Dew Point: 44.1 F (6.7 C)
Relative Humidity: 53%
Pressure (altimeter): 29.96 in. Hg (1014 hPa)
ob: KNEL 251700Z AUTO 16007G15KT 10SM BKN100 16/07 A2996 RMK AO2 SLP143 T01610067 PNO
cycle: 17

Station Type Date Time Source
KNEL TAF UTC NOAA

Error!

Example: see airport list